createdAt,value
2018-09-10T00:00:37.589Z,15.49
2018-09-10T00:01:37.599Z,15.57
2018-09-10T00:02:37.647Z,15.43
2018-09-10T00:03:37.571Z,15.51
2018-09-10T00:04:37.580Z,15.54
2018-09-10T00:05:37.641Z,15.43
2018-09-10T00:06:37.572Z,15.46
2018-09-10T00:07:37.585Z,15.43
2018-09-10T00:08:37.568Z,15.40
2018-09-10T00:09:37.571Z,15.42
2018-09-10T00:10:37.623Z,15.36
2018-09-10T00:11:37.601Z,15.31
2018-09-10T00:12:37.558Z,15.29
2018-09-10T00:13:37.556Z,15.35
2018-09-10T00:14:37.569Z,15.37
2018-09-10T00:15:37.554Z,15.35
2018-09-10T00:16:37.553Z,15.33
2018-09-10T00:17:37.551Z,15.39
2018-09-10T00:18:37.558Z,15.33
2018-09-10T00:19:37.549Z,15.36
2018-09-10T00:20:37.548Z,15.31
2018-09-10T00:21:37.555Z,15.39
2018-09-10T00:22:37.565Z,15.35
2018-09-10T00:23:37.544Z,15.35
2018-09-10T00:24:37.546Z,15.37
2018-09-10T00:25:37.540Z,15.31
2018-09-10T00:26:37.543Z,15.24
2018-09-10T00:27:37.536Z,15.36
2018-09-10T00:28:37.536Z,15.25
2018-09-10T00:29:37.533Z,15.35
2018-09-10T00:30:37.534Z,15.31
2018-09-10T00:31:37.532Z,15.25
2018-09-10T00:32:37.530Z,15.22
2018-09-10T00:33:37.532Z,15.29
2018-09-10T00:34:37.527Z,15.28
2018-09-10T00:35:37.524Z,15.21
2018-09-10T00:36:37.522Z,15.22
2018-09-10T00:37:37.521Z,15.36
2018-09-10T00:38:37.524Z,15.28
2018-09-10T00:39:37.519Z,15.24
2018-09-10T00:40:37.518Z,15.29
2018-09-10T00:41:37.518Z,15.27
2018-09-10T00:42:37.517Z,15.31
2018-09-10T00:43:37.513Z,15.28
2018-09-10T00:44:37.517Z,15.28
2018-09-10T00:45:37.508Z,15.39
2018-09-10T00:46:37.508Z,15.27
2018-09-10T00:47:37.508Z,15.40
2018-09-10T00:48:37.506Z,15.33
2018-09-10T00:49:37.504Z,15.28
2018-09-10T00:50:37.501Z,15.36
2018-09-10T00:51:37.501Z,15.29
2018-09-10T00:52:37.498Z,15.35
2018-09-10T00:53:37.498Z,15.27
2018-09-10T00:54:37.496Z,15.35
2018-09-10T00:55:37.494Z,15.31
2018-09-10T00:56:37.496Z,15.29
2018-09-10T00:57:37.503Z,15.19
2018-09-10T00:58:37.490Z,15.17
2018-09-10T00:59:37.489Z,15.24
2018-09-10T01:00:37.487Z,15.14
2018-09-10T01:01:37.484Z,15.11
2018-09-10T01:02:37.484Z,15.17
2018-09-10T01:03:37.484Z,15.11
2018-09-10T01:04:37.479Z,15.09
2018-09-10T01:05:37.482Z,15.10
2018-09-10T01:06:37.480Z,15.04
2018-09-10T01:07:37.476Z,15.02
2018-09-10T01:08:37.478Z,15.09
2018-09-10T01:09:37.471Z,15.02
2018-09-10T01:10:37.470Z,14.97
2018-09-10T01:11:37.472Z,14.89
2018-09-10T01:12:37.467Z,14.89
2018-09-10T01:13:37.469Z,14.96
2018-09-10T01:14:37.469Z,14.89
2018-09-10T01:15:37.463Z,14.86
2018-09-10T01:16:37.461Z,14.92
2018-09-10T01:17:37.458Z,14.86
2018-09-10T01:18:37.456Z,14.92
2018-09-10T01:19:37.453Z,14.86
2018-09-10T01:20:37.455Z,14.92
2018-09-10T01:21:37.452Z,14.88
2018-09-10T01:22:37.449Z,14.88
2018-09-10T01:23:37.450Z,14.88
2018-09-10T01:24:37.447Z,14.89
2018-09-10T01:25:37.444Z,14.89
2018-09-10T01:26:37.442Z,14.88
2018-09-10T01:27:37.439Z,14.92
2018-09-10T01:28:37.447Z,14.79
2018-09-10T01:29:37.439Z,14.97
2018-09-10T01:30:37.435Z,14.94
2018-09-10T01:31:37.433Z,14.91
2018-09-10T01:32:37.434Z,14.88
2018-09-10T01:33:37.429Z,14.94
2018-09-10T01:34:37.430Z,14.84
2018-09-10T01:35:37.428Z,14.85
2018-09-10T01:36:37.424Z,14.77
2018-09-10T01:37:37.427Z,14.84
2018-09-10T01:38:37.420Z,14.77
2018-09-10T01:39:37.418Z,14.78
2018-09-10T01:40:37.416Z,14.77
2018-09-10T01:41:37.416Z,14.79
2018-09-10T01:42:37.412Z,14.78
2018-09-10T01:43:37.441Z,14.78
2018-09-10T01:44:37.409Z,14.81
2018-09-10T01:45:37.406Z,14.78
2018-09-10T01:46:37.404Z,14.73
2018-09-10T01:47:37.403Z,14.73
2018-09-10T01:49:05.090Z,14.79
2018-09-10T01:49:37.399Z,14.77
2018-09-10T01:50:37.397Z,14.77
2018-09-10T01:51:37.396Z,14.79
2018-09-10T01:52:37.395Z,14.81
2018-09-10T01:53:37.393Z,14.79
2018-09-10T01:54:37.407Z,14.77
2018-09-10T01:55:37.389Z,14.86
2018-09-10T01:56:37.387Z,14.81
2018-09-10T01:57:37.386Z,14.77
2018-09-10T01:58:37.383Z,14.77
2018-09-10T01:59:37.386Z,14.77
2018-09-10T02:00:37.380Z,14.72
2018-09-10T02:01:37.380Z,14.78
2018-09-10T02:02:37.377Z,14.78
2018-09-10T02:03:37.373Z,14.70
2018-09-10T02:04:37.375Z,14.63
2018-09-10T02:05:37.369Z,14.59
2018-09-10T02:06:37.372Z,14.59
2018-09-10T02:07:37.367Z,14.70
2018-09-10T02:08:37.366Z,14.59
2018-09-10T02:09:37.361Z,14.58
2018-09-10T02:10:37.365Z,14.58
2018-09-10T02:11:37.360Z,14.54
2018-09-10T02:12:37.357Z,14.53
2018-09-10T02:13:37.353Z,14.59
2018-09-10T02:14:37.352Z,14.53
2018-09-10T02:15:37.355Z,14.51
2018-09-10T02:16:37.384Z,14.58
2018-09-10T02:17:37.381Z,14.51
2018-09-10T02:18:37.345Z,14.58
2018-09-10T02:19:37.342Z,14.51
2018-09-10T02:20:37.344Z,14.48
2018-09-10T02:21:37.339Z,14.44
2018-09-10T02:22:37.337Z,14.47
2018-09-10T02:23:37.343Z,14.50
2018-09-10T02:24:37.332Z,14.53
2018-09-10T02:25:37.332Z,14.45
2018-09-10T02:26:37.328Z,14.47
2018-09-10T02:27:37.377Z,14.45
2018-09-10T02:28:37.324Z,14.47
2018-09-10T02:29:37.322Z,14.50
2018-09-10T02:30:37.319Z,14.51
2018-09-10T02:31:37.317Z,14.47
2018-09-10T02:32:37.316Z,14.51
2018-09-10T02:33:37.312Z,14.48
2018-09-10T02:34:37.310Z,14.55
2018-09-10T02:35:37.310Z,14.47
2018-09-10T02:36:37.306Z,14.51
2018-09-10T02:37:37.304Z,14.51
2018-09-10T02:38:37.341Z,14.47
2018-09-10T02:39:37.302Z,14.47
2018-09-10T02:40:37.297Z,14.47
2018-09-10T02:41:37.294Z,14.48
2018-09-10T02:42:37.298Z,14.45
2018-09-10T02:43:37.290Z,14.45
2018-09-10T02:44:37.291Z,14.50
2018-09-10T02:45:37.286Z,14.41
2018-09-10T02:46:37.287Z,14.37
2018-09-10T02:47:37.283Z,14.40
2018-09-10T02:48:37.280Z,14.41
2018-09-10T02:49:37.278Z,14.41
2018-09-10T02:50:37.275Z,14.41
2018-09-10T02:51:37.273Z,14.36
2018-09-10T02:52:37.271Z,14.36
2018-09-10T02:53:37.267Z,14.26
2018-09-10T02:54:37.271Z,14.36
2018-09-10T02:55:37.264Z,14.30
2018-09-10T02:56:37.261Z,14.28
2018-09-10T02:57:37.259Z,14.20
2018-09-10T02:58:37.255Z,14.18
2018-09-10T02:59:37.254Z,14.22
2018-09-10T03:00:37.251Z,14.11
2018-09-10T03:01:37.252Z,14.14
2018-09-10T03:02:37.245Z,14.08
2018-09-10T03:03:37.244Z,14.14
2018-09-10T03:04:37.246Z,14.08
2018-09-10T03:05:37.238Z,14.07
2018-09-10T03:06:37.238Z,14.08
2018-09-10T03:07:37.235Z,14.10
2018-09-10T03:08:37.232Z,14.18
2018-09-10T03:09:37.229Z,14.22
2018-09-10T03:10:37.226Z,14.23
2018-09-10T03:11:37.225Z,14.15
2018-09-10T03:12:37.226Z,14.20
2018-09-10T03:13:37.217Z,14.17
2018-09-10T03:14:37.217Z,14.11
2018-09-10T03:15:37.215Z,14.12
2018-09-10T03:16:37.213Z,14.10
2018-09-10T03:17:37.209Z,14.12
2018-09-10T03:18:37.207Z,14.08
2018-09-10T03:19:37.205Z,13.96
2018-09-10T03:20:37.202Z,14.05
2018-09-10T03:21:37.202Z,13.99
2018-09-10T03:22:37.197Z,13.96
2018-09-10T03:23:37.195Z,14.00
2018-09-10T03:24:37.194Z,13.92
2018-09-10T03:25:37.189Z,13.81
2018-09-10T03:26:37.190Z,13.89
2018-09-10T03:27:37.184Z,13.81
2018-09-10T03:28:37.182Z,13.81
2018-09-10T03:29:37.179Z,13.72
2018-09-10T03:30:37.180Z,13.67
2018-09-10T03:31:37.176Z,13.70
2018-09-10T03:32:37.172Z,13.70
2018-09-10T03:33:37.218Z,13.70
2018-09-10T03:34:37.170Z,13.75
2018-09-10T03:35:37.166Z,13.75
2018-09-10T03:36:37.161Z,13.65
2018-09-10T03:37:37.162Z,13.77
2018-09-10T03:38:37.155Z,13.74
2018-09-10T03:39:37.159Z,13.65
2018-09-10T03:40:37.151Z,13.67
2018-09-10T03:41:37.149Z,13.70
2018-09-10T03:42:37.148Z,13.65
2018-09-10T03:43:37.143Z,13.68
2018-09-10T03:44:37.141Z,13.65
2018-09-10T03:45:37.140Z,13.62
2018-09-10T03:46:37.136Z,13.71
2018-09-10T03:47:37.134Z,13.71
2018-09-10T03:48:37.133Z,13.72
2018-09-10T03:49:37.128Z,13.63
2018-09-10T03:50:37.127Z,13.71
2018-09-10T03:51:37.125Z,13.67
2018-09-10T03:52:37.122Z,13.65
2018-09-10T03:53:37.118Z,13.60
2018-09-10T03:54:37.115Z,13.70
2018-09-10T03:55:37.113Z,13.67
2018-09-10T03:56:37.116Z,13.62
2018-09-10T03:57:37.107Z,13.68
2018-09-10T03:58:37.106Z,13.57
2018-09-10T03:59:37.104Z,13.70
2018-09-10T04:00:37.099Z,13.71
2018-09-10T04:01:37.096Z,13.71
2018-09-10T04:02:37.095Z,13.74
2018-09-10T04:03:37.093Z,13.68
2018-09-10T04:04:37.090Z,13.68
2018-09-10T04:05:37.085Z,13.71
2018-09-10T04:06:37.088Z,13.70
2018-09-10T04:07:37.084Z,13.65
2018-09-10T04:08:37.082Z,13.71
2018-09-10T04:09:37.078Z,13.67
2018-09-10T04:10:37.073Z,13.59
2018-09-10T04:11:37.072Z,13.59
2018-09-10T04:12:37.070Z,13.56
2018-09-10T04:13:37.067Z,13.57
2018-09-10T04:14:37.063Z,13.62
2018-09-10T04:15:37.062Z,13.60
2018-09-10T04:16:37.058Z,13.59
2018-09-10T04:17:37.061Z,13.53
2018-09-10T04:18:37.054Z,13.60
2018-09-10T04:19:37.055Z,13.53
2018-09-10T04:20:37.049Z,13.60
2018-09-10T04:21:37.054Z,13.53
2018-09-10T04:22:37.042Z,13.59
2018-09-10T04:23:37.040Z,13.59
2018-09-10T04:24:37.038Z,13.65
2018-09-10T04:25:37.033Z,13.71
2018-09-10T04:26:37.054Z,13.63
2018-09-10T04:27:37.029Z,13.72
2018-09-10T04:28:37.032Z,13.70
2018-09-10T04:29:37.024Z,13.70
2018-09-10T04:30:37.021Z,13.75
2018-09-10T04:31:37.023Z,13.79
2018-09-10T04:32:37.018Z,13.83
2018-09-10T04:33:37.013Z,13.79
2018-09-10T04:34:37.010Z,13.81
2018-09-10T04:35:37.007Z,13.78
2018-09-10T04:36:37.007Z,13.83
2018-09-10T04:37:37.002Z,13.87
2018-09-10T04:38:37.016Z,13.85
2018-09-10T04:39:36.996Z,13.81
2018-09-10T04:40:37.003Z,13.89
2018-09-10T04:41:36.991Z,13.81
2018-09-10T04:42:36.993Z,13.90
2018-09-10T04:43:36.989Z,13.81
2018-09-10T04:44:36.984Z,13.86
2018-09-10T04:45:36.983Z,13.81
2018-09-10T04:46:36.978Z,13.79
2018-09-10T04:47:36.978Z,13.81
2018-09-10T04:48:36.973Z,13.78
2018-09-10T04:49:36.972Z,13.78
2018-09-10T04:50:36.966Z,13.83
2018-09-10T04:51:36.964Z,13.78
2018-09-10T04:52:36.968Z,13.79
2018-09-10T04:53:36.958Z,13.89
2018-09-10T04:54:36.956Z,13.81
2018-09-10T04:55:36.954Z,13.87
2018-09-10T04:56:36.950Z,13.90
2018-09-10T04:57:36.946Z,13.86
2018-09-10T04:58:36.946Z,13.90
2018-09-10T04:59:36.941Z,13.97
2018-09-10T05:00:36.940Z,13.93
2018-09-10T05:01:36.935Z,13.97
2018-09-10T05:02:36.934Z,13.95
2018-09-10T05:03:36.933Z,13.99
2018-09-10T05:04:37.034Z,13.93
2018-09-10T05:05:36.924Z,13.97
2018-09-10T05:06:36.922Z,14.00
2018-09-10T05:07:36.919Z,14.05
2018-09-10T05:08:36.926Z,13.96
2018-09-10T05:09:36.920Z,13.93
2018-09-10T05:10:36.912Z,13.96
2018-09-10T05:11:36.908Z,14.03
2018-09-10T05:12:36.907Z,13.93
2018-09-10T05:13:36.903Z,13.93
2018-09-10T05:14:36.902Z,14.00
2018-09-10T05:15:36.907Z,14.03
2018-09-10T05:16:36.898Z,13.95
2018-09-10T05:17:36.893Z,14.07
2018-09-10T05:18:36.892Z,14.00
2018-09-10T05:19:36.888Z,14.07
2018-09-10T05:20:36.893Z,14.04
2018-09-10T05:21:36.882Z,14.03
2018-09-10T05:22:36.883Z,13.99
2018-09-10T05:23:36.878Z,14.00
2018-09-10T05:24:36.877Z,14.05
2018-09-10T05:25:36.875Z,14.03
2018-09-10T05:26:36.870Z,14.05
2018-09-10T05:27:36.866Z,14.07
2018-09-10T05:28:38.623Z,14.00
2018-09-10T05:29:36.862Z,13.96
2018-09-10T05:30:36.858Z,13.97
2018-09-10T05:31:36.859Z,13.93
2018-09-10T05:32:36.856Z,13.96
2018-09-10T05:33:36.852Z,14.05
2018-09-10T05:34:36.849Z,14.05
2018-09-10T05:35:38.458Z,14.03
2018-09-10T05:36:36.847Z,14.04
2018-09-10T05:37:36.845Z,14.03
2018-09-10T05:38:37.715Z,14.04
2018-09-10T05:39:36.838Z,13.97
2018-09-10T05:40:37.212Z,14.07
2018-09-10T05:41:36.850Z,14.05
2018-09-10T05:42:36.827Z,14.05
2018-09-10T05:43:36.826Z,14.00
2018-09-10T05:44:36.823Z,14.10
2018-09-10T05:45:36.820Z,14.08
2018-09-10T05:46:36.816Z,14.17
2018-09-10T05:47:36.871Z,14.28
2018-09-10T05:48:36.815Z,14.30
2018-09-10T05:49:36.808Z,14.40
2018-09-10T05:50:36.809Z,14.37
2018-09-10T05:51:36.817Z,14.35
2018-09-10T05:52:36.803Z,14.43
2018-09-10T05:53:36.802Z,14.33
2018-09-10T05:54:36.797Z,14.37
2018-09-10T05:55:36.863Z,14.37
2018-09-10T05:56:36.791Z,14.36
2018-09-10T05:57:36.792Z,14.36
2018-09-10T05:58:36.789Z,14.36
2018-09-10T05:59:36.786Z,14.43
2018-09-10T06:00:36.797Z,14.32
2018-09-10T06:01:36.779Z,14.37
2018-09-10T06:02:36.784Z,14.32
2018-09-10T06:03:36.777Z,14.35
2018-09-10T06:04:36.821Z,14.33
2018-09-10T06:05:36.778Z,14.30
2018-09-10T06:06:36.881Z,14.28
2018-09-10T06:07:37.008Z,14.44
2018-09-10T06:08:36.778Z,14.40
2018-09-10T06:09:36.761Z,14.44
2018-09-10T06:10:36.860Z,14.32
2018-09-10T06:11:36.762Z,14.44
2018-09-10T06:12:36.758Z,14.36
2018-09-10T06:13:36.751Z,14.41
2018-09-10T06:14:36.762Z,14.43
2018-09-10T06:15:36.753Z,14.45
2018-09-10T06:16:36.784Z,14.36
2018-09-10T06:17:36.740Z,14.45
2018-09-10T06:18:36.739Z,14.51
2018-09-10T06:19:36.736Z,14.44
2018-09-10T06:20:36.733Z,14.55
2018-09-10T06:21:36.731Z,14.48
2018-09-10T06:22:36.756Z,14.45
2018-09-10T06:23:36.728Z,14.51
2018-09-10T06:24:36.727Z,14.51
2018-09-10T06:25:36.721Z,14.53
2018-09-10T06:26:36.719Z,14.53
2018-09-10T06:27:36.720Z,14.62
2018-09-10T06:28:36.715Z,14.43
2018-09-10T06:29:36.716Z,14.54
2018-09-10T06:30:36.710Z,14.55
2018-09-10T06:31:36.710Z,14.55
2018-09-10T06:32:36.724Z,14.47
2018-09-10T06:33:36.704Z,14.55
2018-09-10T06:34:36.702Z,14.54
2018-09-10T06:35:36.745Z,14.53
2018-09-10T06:36:36.695Z,14.59
2018-09-10T06:37:36.702Z,14.58
2018-09-10T06:38:36.728Z,14.63
2018-09-10T06:39:36.690Z,14.58
2018-09-10T06:40:36.687Z,14.69
2018-09-10T06:41:36.684Z,14.66
2018-09-10T06:42:36.681Z,14.62
2018-09-10T06:43:36.688Z,14.68
2018-09-10T06:44:36.677Z,14.79
2018-09-10T06:45:36.672Z,14.73
2018-09-10T06:46:36.672Z,14.73
2018-09-10T06:47:36.709Z,14.79
2018-09-10T06:48:36.670Z,14.85
2018-09-10T06:49:36.667Z,14.77
2018-09-10T06:50:36.661Z,14.79
2018-09-10T06:51:36.660Z,14.84
2018-09-10T06:52:36.658Z,14.85
2018-09-10T06:53:36.656Z,14.84
2018-09-10T06:54:36.658Z,14.84
2018-09-10T06:55:36.651Z,14.86
2018-09-10T06:56:36.836Z,14.86
2018-09-10T06:57:36.655Z,14.91
2018-09-10T06:58:36.645Z,14.91
2018-09-10T06:59:36.643Z,14.94
2018-09-10T07:00:36.642Z,14.97
2018-09-10T07:01:36.638Z,15.03
2018-09-10T07:02:36.637Z,15.09
2018-09-10T07:03:36.633Z,15.06
2018-09-10T07:04:36.632Z,14.96
2018-09-10T07:05:36.627Z,15.06
2018-09-10T07:06:36.626Z,15.06
2018-09-10T07:07:36.625Z,15.14
2018-09-10T07:08:36.623Z,15.17
2018-09-10T07:09:36.622Z,15.24
2018-09-10T07:10:36.625Z,15.21
2018-09-10T07:11:36.625Z,15.24
2018-09-10T07:12:36.638Z,15.28
2018-09-10T07:13:36.613Z,15.28
2018-09-10T07:14:36.611Z,15.27
2018-09-10T07:15:36.607Z,15.19
2018-09-10T07:16:36.606Z,15.28
2018-09-10T07:17:36.602Z,15.31
2018-09-10T07:18:36.707Z,15.42
2018-09-10T07:19:36.601Z,15.46
2018-09-10T07:20:36.598Z,15.43
2018-09-10T07:21:36.601Z,15.54
2018-09-10T07:22:36.593Z,15.58
2018-09-10T07:23:36.591Z,15.61
2018-09-10T07:24:36.591Z,15.64
2018-09-10T07:25:36.587Z,15.64
2018-09-10T07:26:36.590Z,15.77
2018-09-10T07:27:36.591Z,15.72
2018-09-10T07:28:36.597Z,15.94
2018-09-10T07:29:36.590Z,15.91
2018-09-10T07:30:36.578Z,15.94
2018-09-10T07:31:36.575Z,16.04
2018-09-10T07:32:36.575Z,16.04
2018-09-10T07:33:36.580Z,16.05
2018-09-10T07:34:36.590Z,16.24
2018-09-10T07:35:36.570Z,16.17
2018-09-10T07:36:36.569Z,16.38
2018-09-10T07:37:36.566Z,16.29
2018-09-10T07:38:36.567Z,16.36
2018-09-10T07:39:36.563Z,16.49
2018-09-10T07:40:36.563Z,16.39
2018-09-10T07:41:36.561Z,16.46
2018-09-10T07:42:36.559Z,16.57
2018-09-10T07:43:36.615Z,16.60
2018-09-10T07:44:36.557Z,16.61
2018-09-10T07:45:36.555Z,16.69
2018-09-10T07:46:36.554Z,16.71
2018-09-10T07:47:36.555Z,16.83
2018-09-10T07:48:36.554Z,16.86
2018-09-10T07:49:36.559Z,16.84
2018-09-10T07:50:36.549Z,16.91
2018-09-10T07:51:36.546Z,17.02
2018-09-10T07:52:36.550Z,17.11
2018-09-10T07:53:36.548Z,17.11
2018-09-10T07:54:36.570Z,17.14
2018-09-10T07:55:36.544Z,17.20
2018-09-10T07:56:36.545Z,17.23
2018-09-10T07:57:36.543Z,17.41
2018-09-10T07:58:36.540Z,17.48
2018-09-10T07:59:36.541Z,17.52
2018-09-10T08:00:36.542Z,17.65
2018-09-10T08:01:36.538Z,17.70
2018-09-10T08:02:36.536Z,17.80
2018-09-10T08:03:36.537Z,17.85
2018-09-10T08:04:36.536Z,18.01
2018-09-10T08:05:36.535Z,18.01
2018-09-10T08:06:36.541Z,18.13
2018-09-10T08:07:36.547Z,18.16
2018-09-10T08:08:36.540Z,18.29
2018-09-10T08:09:36.619Z,18.23
2018-09-10T08:10:36.534Z,18.28
2018-09-10T08:11:36.534Z,18.40
2018-09-10T08:12:36.533Z,18.47
2018-09-10T08:13:36.534Z,18.55
2018-09-10T08:14:36.534Z,18.58
2018-09-10T08:15:36.532Z,18.62
2018-09-10T08:16:36.651Z,18.77
2018-09-10T08:17:36.532Z,18.77
2018-09-10T08:18:36.542Z,18.78
2018-09-10T08:19:36.538Z,18.88
2018-09-10T08:20:36.534Z,18.86
2018-09-10T08:21:36.531Z,18.92
2018-09-10T08:22:36.532Z,19.07
2018-09-10T08:23:36.539Z,19.02
2018-09-10T08:24:36.536Z,19.11
2018-09-10T08:25:36.533Z,19.14
2018-09-10T08:26:36.535Z,19.16
2018-09-10T08:27:36.534Z,19.27
2018-09-10T08:28:36.536Z,19.34
2018-09-10T08:29:36.536Z,19.37
2018-09-10T08:30:36.535Z,19.49
2018-09-10T08:31:36.541Z,19.58
2018-09-10T08:32:36.546Z,19.62
2018-09-10T08:33:36.537Z,19.74
2018-09-10T08:34:36.541Z,19.71
2018-09-10T08:35:36.542Z,19.82
2018-09-10T08:36:36.543Z,19.84
2018-09-10T08:37:36.541Z,19.86
2018-09-10T08:38:36.541Z,19.96
2018-09-10T08:39:36.543Z,19.88
2018-09-10T08:40:36.575Z,20.04
2018-09-10T08:41:36.545Z,19.94
2018-09-10T08:42:36.544Z,20.06
2018-09-10T08:43:36.553Z,20.02
2018-09-10T08:44:36.549Z,20.00
2018-09-10T08:45:36.559Z,20.10
2018-09-10T08:46:36.732Z,20.09
2018-09-10T08:47:36.551Z,20.19
2018-09-10T08:48:36.552Z,20.22
2018-09-10T08:49:36.552Z,20.18
2018-09-10T08:50:36.556Z,20.26
2018-09-10T08:51:36.555Z,20.21
2018-09-10T08:52:36.556Z,20.40
2018-09-10T08:53:36.558Z,20.34
2018-09-10T08:54:36.778Z,20.43
2018-09-10T08:55:36.677Z,20.47
2018-09-10T08:56:36.563Z,20.43
2018-09-10T08:57:36.563Z,20.47
2018-09-10T08:58:36.563Z,20.44
2018-09-10T08:59:36.564Z,20.43
2018-09-10T09:00:36.570Z,20.50
2018-09-10T09:01:36.569Z,20.52
2018-09-10T09:02:36.568Z,20.55
2018-09-10T09:03:36.572Z,20.60
2018-09-10T09:04:36.574Z,20.59
2018-09-10T09:05:36.574Z,20.59
2018-09-10T09:06:36.580Z,20.60
2018-09-10T09:07:36.576Z,20.62
2018-09-10T09:08:36.580Z,20.65
2018-09-10T09:09:36.634Z,20.66
2018-09-10T09:10:36.587Z,20.66
2018-09-10T09:11:36.583Z,20.66
2018-09-10T09:12:36.584Z,20.66
2018-09-10T09:13:36.586Z,20.74
2018-09-10T09:14:36.590Z,20.69
2018-09-10T09:15:36.589Z,20.77
2018-09-10T09:16:36.590Z,20.74
2018-09-10T09:17:36.632Z,20.72
2018-09-10T09:18:36.592Z,20.77
2018-09-10T09:19:36.596Z,20.72
2018-09-10T09:20:36.596Z,20.82
2018-09-10T09:21:36.599Z,20.85
2018-09-10T09:22:36.600Z,20.85
2018-09-10T09:23:36.666Z,20.92
2018-09-10T09:24:36.605Z,20.93
2018-09-10T09:25:36.606Z,21.03
2018-09-10T09:26:36.609Z,21.05
2018-09-10T09:27:36.609Z,21.02
2018-09-10T09:28:36.612Z,21.14
2018-09-10T09:29:36.644Z,21.17
2018-09-10T09:30:36.612Z,21.29
2018-09-10T09:31:36.617Z,21.33
2018-09-10T09:32:36.618Z,21.42
2018-09-10T09:33:36.617Z,21.42
2018-09-10T09:34:36.618Z,21.50
2018-09-10T09:35:36.623Z,21.62
2018-09-10T09:36:36.622Z,21.72
2018-09-10T09:37:36.624Z,21.82
2018-09-10T09:38:36.625Z,21.88
2018-09-10T09:39:36.631Z,21.96
2018-09-10T09:40:36.632Z,21.99
2018-09-10T09:41:36.633Z,22.13
2018-09-10T09:42:36.635Z,22.11
2018-09-10T09:43:36.637Z,22.17
2018-09-10T09:44:36.638Z,22.18
2018-09-10T09:45:36.640Z,22.25
2018-09-10T09:46:36.647Z,22.26
2018-09-10T09:47:36.659Z,22.39
2018-09-10T09:48:36.655Z,22.33
2018-09-10T09:49:36.686Z,22.43
2018-09-10T09:50:36.653Z,22.53
2018-09-10T09:51:36.656Z,22.62
2018-09-10T09:52:36.663Z,22.66
2018-09-10T09:53:36.668Z,22.75
2018-09-10T09:54:36.661Z,22.76
2018-09-10T09:55:36.664Z,22.75
2018-09-10T09:56:36.691Z,22.85
2018-09-10T09:57:36.695Z,22.94
2018-09-10T09:58:36.671Z,23.03
2018-09-10T09:59:36.673Z,23.03
2018-09-10T10:00:36.683Z,23.12
2018-09-10T10:01:36.684Z,23.18
2018-09-10T10:02:36.749Z,23.20
2018-09-10T10:03:36.706Z,23.28
2018-09-10T10:04:36.780Z,23.27
2018-09-10T10:05:36.689Z,23.39
2018-09-10T10:06:36.692Z,23.32
2018-09-10T10:07:36.696Z,23.37
2018-09-10T10:08:36.698Z,23.41
2018-09-10T10:09:36.702Z,23.44
2018-09-10T10:10:36.709Z,23.47
2018-09-10T10:11:36.740Z,23.48
2018-09-10T10:12:36.712Z,23.56
2018-09-10T10:13:36.714Z,23.61
2018-09-10T10:14:36.716Z,23.62
2018-09-10T10:15:36.731Z,23.66
2018-09-10T10:16:36.728Z,23.73
2018-09-10T10:17:36.726Z,23.73
2018-09-10T10:18:36.729Z,23.83
2018-09-10T10:19:36.734Z,23.86
2018-09-10T10:20:36.737Z,23.93
2018-09-10T10:21:36.743Z,23.96
2018-09-10T10:22:36.756Z,24.05
2018-09-10T10:23:36.756Z,24.18
2018-09-10T10:24:36.747Z,24.16
2018-09-10T10:25:36.750Z,24.20
2018-09-10T10:26:36.754Z,24.28
2018-09-10T10:27:36.757Z,24.40
2018-09-10T10:28:36.762Z,24.40
2018-09-10T10:29:36.763Z,24.38
2018-09-10T10:30:36.768Z,24.42
2018-09-10T10:31:36.772Z,24.45
2018-09-10T10:32:36.776Z,24.60
2018-09-10T10:33:36.777Z,24.63
2018-09-10T10:34:36.780Z,24.66
2018-09-10T10:35:36.825Z,24.84
2018-09-10T10:36:36.788Z,24.84
2018-09-10T10:37:36.790Z,24.89
2018-09-10T10:38:36.794Z,24.88
2018-09-10T10:39:36.801Z,24.91
2018-09-10T10:40:36.801Z,24.85
2018-09-10T10:41:36.806Z,25.06
2018-09-10T10:42:36.809Z,25.07
2018-09-10T10:43:36.811Z,25.08
2018-09-10T10:44:36.816Z,25.22
2018-09-10T10:45:36.847Z,25.22
2018-09-10T10:46:36.828Z,25.26
2018-09-10T10:47:36.827Z,25.32
2018-09-10T10:48:36.832Z,25.32
2018-09-10T10:49:36.836Z,25.31
2018-09-10T10:50:36.840Z,25.33
2018-09-10T10:51:36.843Z,25.40
2018-09-10T10:52:36.850Z,25.41
2018-09-10T10:53:36.870Z,25.44
2018-09-10T10:54:36.853Z,25.48
2018-09-10T10:55:36.858Z,25.47
2018-09-10T10:56:36.863Z,25.51
2018-09-10T10:57:36.866Z,25.63
2018-09-10T10:58:36.902Z,25.62
2018-09-10T10:59:36.873Z,25.62
2018-09-10T11:00:36.881Z,25.63
2018-09-10T11:01:36.881Z,25.59
2018-09-10T11:02:36.930Z,25.83
2018-09-10T11:03:36.892Z,25.75
2018-09-10T11:04:36.894Z,25.78
2018-09-10T11:05:36.901Z,25.84
2018-09-10T11:06:36.907Z,25.83
2018-09-10T11:07:36.906Z,25.96
2018-09-10T11:08:36.909Z,25.91
2018-09-10T11:09:36.914Z,26.02
2018-09-10T11:10:36.920Z,26.03
2018-09-10T11:11:36.921Z,26.05
2018-09-10T11:12:36.926Z,26.07
2018-09-10T11:13:36.942Z,26.06
2018-09-10T11:14:36.936Z,26.02
2018-09-10T11:15:36.938Z,26.05
2018-09-10T11:16:36.981Z,26.00
2018-09-10T11:17:36.947Z,25.91
2018-09-10T11:18:36.952Z,25.95
2018-09-10T11:19:36.959Z,25.81
2018-09-10T11:20:36.959Z,25.78
2018-09-10T11:21:36.965Z,25.72
2018-09-10T11:22:36.971Z,25.73
2018-09-10T11:23:36.978Z,25.68
2018-09-10T11:24:36.983Z,25.62
2018-09-10T11:25:36.980Z,25.62
2018-09-10T11:26:36.989Z,25.51
2018-09-10T11:27:37.039Z,25.46
2018-09-10T11:28:37.000Z,25.41
2018-09-10T11:29:36.999Z,25.48
2018-09-10T11:30:37.000Z,25.46
2018-09-10T11:31:37.011Z,25.47
2018-09-10T11:32:37.018Z,25.41
2018-09-10T11:33:37.024Z,25.43
2018-09-10T11:34:37.100Z,25.44
2018-09-10T11:35:37.023Z,25.38
2018-09-10T11:36:37.024Z,25.41
2018-09-10T11:37:37.030Z,25.41
2018-09-10T11:38:37.044Z,25.41
2018-09-10T11:39:37.038Z,25.44
2018-09-10T11:40:37.059Z,25.41
2018-09-10T11:41:37.043Z,25.41
2018-09-10T11:42:37.049Z,25.43
2018-09-10T11:43:37.054Z,25.50
2018-09-10T11:44:37.054Z,25.41
2018-09-10T11:45:37.057Z,25.51
2018-09-10T11:46:37.103Z,25.63
2018-09-10T11:47:37.065Z,25.69
2018-09-10T11:48:37.072Z,25.77
2018-09-10T11:49:37.092Z,25.83
2018-09-10T11:50:37.077Z,25.90
2018-09-10T11:51:37.083Z,25.93
2018-09-10T11:52:37.087Z,26.02
2018-09-10T11:53:37.088Z,26.06
2018-09-10T11:54:37.105Z,26.07
2018-09-10T11:55:37.120Z,26.13
2018-09-10T11:56:37.105Z,26.18
2018-09-10T11:57:37.105Z,26.10
2018-09-10T11:58:37.109Z,26.22
2018-09-10T11:59:37.129Z,26.23
2018-09-10T12:00:37.115Z,26.26
2018-09-10T12:01:37.142Z,26.28
2018-09-10T12:02:37.124Z,26.26
2018-09-10T12:03:37.126Z,26.38
2018-09-10T12:04:37.136Z,26.37
2018-09-10T12:05:37.133Z,26.44
2018-09-10T12:06:37.144Z,26.45
2018-09-10T12:07:37.143Z,26.60
2018-09-10T12:08:37.147Z,26.71
2018-09-10T12:09:37.157Z,26.68
2018-09-10T12:10:37.156Z,26.71
2018-09-10T12:11:37.158Z,26.88
2018-09-10T12:12:37.164Z,26.90
2018-09-10T12:13:37.234Z,26.90
2018-09-10T12:14:37.177Z,26.95
2018-09-10T12:15:37.176Z,26.95
2018-09-10T12:16:37.181Z,27.08
2018-09-10T12:17:37.187Z,27.07
2018-09-10T12:18:37.189Z,27.14
2018-09-10T12:19:37.196Z,27.18
2018-09-10T12:20:37.202Z,27.21
2018-09-10T12:21:37.279Z,27.21
2018-09-10T12:22:37.205Z,27.29
2018-09-10T12:23:37.209Z,27.35
2018-09-10T12:24:37.213Z,27.42
2018-09-10T12:25:37.219Z,27.39
2018-09-10T12:26:37.248Z,27.47
2018-09-10T12:27:37.234Z,27.47
2018-09-10T12:28:37.233Z,27.51
2018-09-10T12:29:37.305Z,27.59
2018-09-10T12:30:37.252Z,27.55
2018-09-10T12:31:37.258Z,27.70
2018-09-10T12:32:37.251Z,27.55
2018-09-10T12:33:37.255Z,27.68
2018-09-10T12:34:37.259Z,27.64
2018-09-10T12:35:37.258Z,27.68
2018-09-10T12:36:37.261Z,27.74
2018-09-10T12:37:37.267Z,27.83
2018-09-10T12:38:37.269Z,27.75
2018-09-10T12:39:37.363Z,27.75
2018-09-10T12:40:37.283Z,27.74
2018-09-10T12:41:37.288Z,27.78
2018-09-10T12:42:37.378Z,27.82
2018-09-10T12:43:37.301Z,27.78
2018-09-10T12:44:37.300Z,27.78
2018-09-10T12:45:37.313Z,27.77
2018-09-10T12:46:37.371Z,27.82
2018-09-10T12:47:37.313Z,27.80
2018-09-10T12:48:37.321Z,27.82
2018-09-10T12:49:37.517Z,27.83
2018-09-10T12:50:37.488Z,27.78
2018-09-10T12:51:37.351Z,27.77
2018-09-10T12:52:37.337Z,27.74